sensor_id;sensor_type;location;lat;lon;timestamp;pressure;altitude;pressure_sealevel;temperature;humidity
54512;BME280;40419;47.438;19.026;2023-04-25T00:02:07;98779.56;;;11.41;100.00
54512;BME280;40419;47.438;19.026;2023-04-25T00:04:36;98779.22;;;11.49;100.00
54512;BME280;40419;47.438;19.026;2023-04-25T00:07:05;98771.88;;;11.26;100.00
54512;BME280;40419;47.438;19.026;2023-04-25T00:09:33;98764.81;;;11.25;100.00
54512;BME280;40419;47.438;19.026;2023-04-25T00:12:01;98767.41;;;11.31;100.00
54512;BME280;40419;47.438;19.026;2023-04-25T00:14:27;98771.56;;;11.46;100.00
54512;BME280;40419;47.438;19.026;2023-04-25T00:16:57;98772.00;;;11.43;100.00
54512;BME280;40419;47.438;19.026;2023-04-25T00:19:26;98763.41;;;11.22;100.00
54512;BME280;40419;47.438;19.026;2023-04-25T00:21:54;98765.63;;;11.25;100.00
54512;BME280;40419;47.438;19.026;2023-04-25T00:24:20;98760.00;;;11.39;100.00
54512;BME280;40419;47.438;19.026;2023-04-25T00:26:48;98751.25;;;11.37;100.00
54512;BME280;40419;47.438;19.026;2023-04-25T00:29:15;98743.59;;;11.22;100.00
54512;BME280;40419;47.438;19.026;2023-04-25T00:31:41;98748.69;;;11.42;100.00
54512;BME280;40419;47.438;19.026;2023-04-25T00:34:09;98749.97;;;11.39;100.00
54512;BME280;40419;47.438;19.026;2023-04-25T00:36:37;98746.78;;;11.42;100.00
54512;BME280;40419;47.438;19.026;2023-04-25T00:39:08;98741.59;;;11.41;100.00
54512;BME280;40419;47.438;19.026;2023-04-25T00:41:39;98744.78;;;11.38;100.00
54512;BME280;40419;47.438;19.026;2023-04-25T00:44:05;98740.78;;;11.28;100.00
54512;BME280;40419;47.438;19.026;2023-04-25T00:46:32;98735.47;;;11.33;100.00
54512;BME280;40419;47.438;19.026;2023-04-25T00:49:02;98729.00;;;11.34;100.00
54512;BME280;40419;47.438;19.026;2023-04-25T00:51:32;98729.13;;;11.28;100.00
54512;BME280;40419;47.438;19.026;2023-04-25T00:53:58;98715.22;;;11.24;100.00
54512;BME280;40419;47.438;19.026;2023-04-25T00:56:24;98718.75;;;11.25;100.00
54512;BME280;40419;47.438;19.026;2023-04-25T00:58:53;98719.09;;;11.28;100.00
54512;BME280;40419;47.438;19.026;2023-04-25T01:01:24;98716.25;;;11.35;100.00
54512;BME280;40419;47.438;19.026;2023-04-25T01:03:49;98717.69;;;11.26;100.00
54512;BME280;40419;47.438;19.026;2023-04-25T01:06:20;98710.25;;;11.33;100.00
54512;BME280;40419;47.438;19.026;2023-04-25T01:08:49;98696.22;;;11.12;100.00
54512;BME280;40419;47.438;19.026;2023-04-25T01:11:19;98698.63;;;11.21;100.00
54512;BME280;40419;47.438;19.026;2023-04-25T01:13:50;98701.09;;;11.22;100.00
54512;BME280;40419;47.438;19.026;2023-04-25T01:16:20;98707.56;;;11.21;100.00
54512;BME280;40419;47.438;19.026;2023-04-25T01:18:49;98696.69;;;11.09;100.00
54512;BME280;40419;47.438;19.026;2023-04-25T01:21:16;98701.56;;;11.19;100.00
54512;BME280;40419;47.438;19.026;2023-04-25T01:23:44;98702.84;;;11.16;100.00
54512;BME280;40419;47.438;19.026;2023-04-25T01:26:10;98702.94;;;11.22;100.00
54512;BME280;40419;47.438;19.026;2023-04-25T01:28:39;98704.75;;;11.28;100.00
54512;BME280;40419;47.438;19.026;2023-04-25T01:31:09;98702.59;;;11.06;100.00
54512;BME280;40419;47.438;19.026;2023-04-25T01:33:36;98697.41;;;11.05;100.00
54512;BME280;40419;47.438;19.026;2023-04-25T01:36:01;98690.72;;;11.19;100.00
54512;BME280;40419;47.438;19.026;2023-04-25T01:38:29;98696.84;;;11.03;100.00
54512;BME280;40419;47.438;19.026;2023-04-25T01:41:02;98694.69;;;11.05;100.00
54512;BME280;40419;47.438;19.026;2023-04-25T01:43:28;98689.41;;;10.98;100.00
54512;BME280;40419;47.438;19.026;2023-04-25T01:45:54;98699.41;;;10.97;100.00
54512;BME280;40419;47.438;19.026;2023-04-25T01:48:25;98699.78;;;11.13;100.00
54512;BME280;40419;47.438;19.026;2023-04-25T01:50:55;98700.13;;;11.05;100.00
54512;BME280;40419;47.438;19.026;2023-04-25T01:53:20;98705.91;;;10.96;100.00
54512;BME280;40419;47.438;19.026;2023-04-25T01:55:49;98705.75;;;10.91;100.00
54512;BME280;40419;47.438;19.026;2023-04-25T01:58:23;98690.84;;;11.01;100.00
54512;BME280;40419;47.438;19.026;2023-04-25T02:01:01;98699.88;;;10.94;100.00
54512;BME280;40419;47.438;19.026;2023-04-25T02:03:36;98704.25;;;11.07;100.00
54512;BME280;40419;47.438;19.026;2023-04-25T02:06:05;98710.22;;;10.97;100.00
54512;BME280;40419;47.438;19.026;2023-04-25T02:08:33;98707.06;;;10.89;100.00
54512;BME280;40419;47.438;19.026;2023-04-25T02:10:58;98706.69;;;10.85;100.00
54512;BME280;40419;47.438;19.026;2023-04-25T02:13:29;98708.84;;;10.95;100.00
54512;BME280;40419;47.438;19.026;2023-04-25T02:16:02;98706.47;;;10.98;100.00
54512;BME280;40419;47.438;19.026;2023-04-25T02:18:29;98703.53;;;11.12;100.00
54512;BME280;40419;47.438;19.026;2023-04-25T02:21:00;98707.28;;;10.99;100.00
54512;BME280;40419;47.438;19.026;2023-04-25T02:23:28;98697.50;;;10.86;100.00
54512;BME280;40419;47.438;19.026;2023-04-25T02:25:58;98701.53;;;10.95;100.00
54512;BME280;40419;47.438;19.026;2023-04-25T02:28:26;98713.09;;;11.03;100.00
54512;BME280;40419;47.438;19.026;2023-04-25T02:30:52;98707.19;;;10.94;100.00
54512;BME280;40419;47.438;19.026;2023-04-25T02:33:18;98711.19;;;11.03;100.00
54512;BME280;40419;47.438;19.026;2023-04-25T02:35:46;98709.31;;;11.04;100.00
54512;BME280;40419;47.438;19.026;2023-04-25T02:38:12;98700.81;;;10.88;100.00
54512;BME280;40419;47.438;19.026;2023-04-25T02:40:39;98710.13;;;11.04;100.00
54512;BME280;40419;47.438;19.026;2023-04-25T02:43:09;98713.56;;;10.99;100.00
54512;BME280;40419;47.438;19.026;2023-04-25T02:45:37;98710.13;;;10.92;99.10
54512;BME280;40419;47.438;19.026;2023-04-25T02:48:03;98720.00;;;10.87;100.00
54512;BME280;40419;47.438;19.026;2023-04-25T02:50:31;98703.88;;;10.80;100.00
54512;BME280;40419;47.438;19.026;2023-04-25T02:53:00;98706.22;;;10.88;100.00
54512;BME280;40419;47.438;19.026;2023-04-25T02:55:33;98702.47;;;10.89;100.00
54512;BME280;40419;47.438;19.026;2023-04-25T02:58:03;98706.72;;;10.97;100.00
54512;BME280;40419;47.438;19.026;2023-04-25T03:00:55;98706.44;;;10.75;100.00
54512;BME280;40419;47.438;19.026;2023-04-25T03:03:21;98698.44;;;10.80;100.00
54512;BME280;40419;47.438;19.026;2023-04-25T03:05:51;98701.66;;;10.89;100.00
54512;BME280;40419;47.438;19.026;2023-04-25T03:08:24;98702.47;;;10.89;100.00
54512;BME280;40419;47.438;19.026;2023-04-25T03:10:50;98703.28;;;10.78;100.00
54512;BME280;40419;47.438;19.026;2023-04-25T03:13:17;98704.59;;;10.87;100.00
54512;BME280;40419;47.438;19.026;2023-04-25T03:15:43;98697.41;;;10.81;100.00
54512;BME280;40419;47.438;19.026;2023-04-25T03:18:11;98697.72;;;10.73;100.00
54512;BME280;40419;47.438;19.026;2023-04-25T03:20:38;98689.63;;;10.85;100.00
54512;BME280;40419;47.438;19.026;2023-04-25T03:23:04;98690.56;;;10.78;100.00
54512;BME280;40419;47.438;19.026;2023-04-25T03:25:33;98694.75;;;10.62;100.00
54512;BME280;40419;47.438;19.026;2023-04-25T03:27:58;98683.00;;;10.57;100.00
54512;BME280;40419;47.438;19.026;2023-04-25T03:30:26;98683.94;;;10.62;100.00
54512;BME280;40419;47.438;19.026;2023-04-25T03:32:55;98692.38;;;10.54;100.00
54512;BME280;40419;47.438;19.026;2023-04-25T03:35:23;98691.41;;;10.49;100.00
54512;BME280;40419;47.438;19.026;2023-04-25T03:37:52;98691.56;;;10.66;100.00
54512;BME280;40419;47.438;19.026;2023-04-25T03:40:23;98692.47;;;10.36;100.00
54512;BME280;40419;47.438;19.026;2023-04-25T03:43:09;98697.06;;;10.47;100.00
54512;BME280;40419;47.438;19.026;2023-04-25T03:45:36;98696.94;;;10.42;100.00
54512;BME280;40419;47.438;19.026;2023-04-25T03:48:06;98707.19;;;10.52;100.00
54512;BME280;40419;47.438;19.026;2023-04-25T03:50:34;98701.91;;;10.45;100.00
54512;BME280;40419;47.438;19.026;2023-04-25T03:53:02;98706.09;;;10.41;100.00
54512;BME280;40419;47.438;19.026;2023-04-25T03:55:38;98705.66;;;10.44;100.00
54512;BME280;40419;47.438;19.026;2023-04-25T03:58:05;98702.66;;;10.34;100.00
54512;BME280;40419;47.438;19.026;2023-04-25T04:00:34;98706.84;;;10.29;100.00
54512;BME280;40419;47.438;19.026;2023-04-25T04:03:01;98709.59;;;10.11;100.00
54512;BME280;40419;47.438;19.026;2023-04-25T04:05:29;98719.19;;;10.25;100.00
54512;BME280;40419;47.438;19.026;2023-04-25T04:07:58;98713.28;;;10.17;100.00
54512;BME280;40419;47.438;19.026;2023-04-25T04:10:35;98714.31;;;10.16;100.00
54512;BME280;40419;47.438;19.026;2023-04-25T04:13:01;98731.00;;;10.13;100.00
54512;BME280;40419;47.438;19.026;2023-04-25T04:15:26;98719.00;;;10.08;100.00
54512;BME280;40419;47.438;19.026;2023-04-25T04:17:52;98726.44;;;10.13;100.00
54512;BME280;40419;47.438;19.026;2023-04-25T04:20:19;98716.78;;;10.17;100.00
54512;BME280;40419;47.438;19.026;2023-04-25T04:22:46;98723.28;;;10.16;100.00
54512;BME280;40419;47.438;19.026;2023-04-25T04:25:15;98714.34;;;9.97;100.00
54512;BME280;40419;47.438;19.026;2023-04-25T04:28:03;98726.88;;;9.91;100.00
54512;BME280;40419;47.438;19.026;2023-04-25T04:30:37;98726.88;;;9.91;100.00
54512;BME280;40419;47.438;19.026;2023-04-25T04:33:06;98731.13;;;9.87;100.00
54512;BME280;40419;47.438;19.026;2023-04-25T04:35:33;98720.53;;;9.86;100.00
54512;BME280;40419;47.438;19.026;2023-04-25T04:38:01;98724.72;;;9.63;100.00
54512;BME280;40419;47.438;19.026;2023-04-25T04:40:31;98726.44;;;9.76;100.00
54512;BME280;40419;47.438;19.026;2023-04-25T04:43:14;98733.56;;;9.70;100.00
54512;BME280;40419;47.438;19.026;2023-04-25T04:46:02;98726.38;;;9.64;100.00
54512;BME280;40419;47.438;19.026;2023-04-25T04:48:43;98721.84;;;9.39;100.00
54512;BME280;40419;47.438;19.026;2023-04-25T04:51:45;98727.13;;;9.53;100.00
54512;BME280;40419;47.438;19.026;2023-04-25T04:54:28;98724.69;;;9.45;100.00
54512;BME280;40419;47.438;19.026;2023-04-25T04:57:11;98723.13;;;9.37;100.00
54512;BME280;40419;47.438;19.026;2023-04-25T05:00:08;98725.50;;;9.27;100.00
54512;BME280;40419;47.438;19.026;2023-04-25T05:03:02;98717.72;;;9.37;100.00
54512;BME280;40419;47.438;19.026;2023-04-25T05:05:52;98722.13;;;9.31;100.00
54512;BME280;40419;47.438;19.026;2023-04-25T05:08:41;98720.94;;;9.27;100.00
54512;BME280;40419;47.438;19.026;2023-04-25T05:11:12;98719.25;;;9.08;100.00
54512;BME280;40419;47.438;19.026;2023-04-25T05:13:54;98721.97;;;9.01;100.00
54512;BME280;40419;47.438;19.026;2023-04-25T05:16:43;98714.50;;;9.03;100.00
54512;BME280;40419;47.438;19.026;2023-04-25T05:19:21;98728.91;;;8.90;100.00
54512;BME280;40419;47.438;19.026;2023-04-25T05:22:00;98727.38;;;9.01;100.00
54512;BME280;40419;47.438;19.026;2023-04-25T05:25:08;98719.72;;;8.98;100.00
54512;BME280;40419;47.438;19.026;2023-04-25T05:27:58;98722.31;;;8.86;100.00
54512;BME280;40419;47.438;19.026;2023-04-25T05:30:41;98723.88;;;9.00;100.00
54512;BME280;40419;47.438;19.026;2023-04-25T05:33:30;98722.81;;;8.76;100.00
54512;BME280;40419;47.438;19.026;2023-04-25T05:35:56;98728.81;;;8.78;100.00
54512;BME280;40419;47.438;19.026;2023-04-25T05:38:27;98726.22;;;8.90;100.00
54512;BME280;40419;47.438;19.026;2023-04-25T05:41:13;98719.38;;;8.87;100.00
54512;BME280;40419;47.438;19.026;2023-04-25T05:43:59;98711.94;;;8.83;100.00
54512;BME280;40419;47.438;19.026;2023-04-25T05:46:52;98720.13;;;8.69;100.00
54512;BME280;40419;47.438;19.026;2023-04-25T05:49:34;98724.25;;;8.79;100.00
54512;BME280;40419;47.438;19.026;2023-04-25T05:52:29;98731.84;;;8.89;100.00
54512;BME280;40419;47.438;19.026;2023-04-25T05:55:17;98726.97;;;8.72;100.00
54512;BME280;40419;47.438;19.026;2023-04-25T05:57:43;98732.56;;;8.77;100.00
54512;BME280;40419;47.438;19.026;2023-04-25T06:00:16;98733.53;;;8.83;100.00
54512;BME280;40419;47.438;19.026;2023-04-25T06:02:48;98735.28;;;8.71;100.00
54512;BME280;40419;47.438;19.026;2023-04-25T06:05:20;98732.78;;;8.76;100.00
54512;BME280;40419;47.438;19.026;2023-04-25T06:07:46;98747.13;;;8.69;100.00
54512;BME280;40419;47.438;19.026;2023-04-25T06:10:13;98736.97;;;8.72;100.00
54512;BME280;40419;47.438;19.026;2023-04-25T06:12:41;98742.94;;;8.74;100.00
54512;BME280;40419;47.438;19.026;2023-04-25T06:15:14;98741.41;;;8.84;100.00
54512;BME280;40419;47.438;19.026;2023-04-25T06:17:41;98740.53;;;8.91;100.00
54512;BME280;40419;47.438;19.026;2023-04-25T06:20:09;98751.19;;;8.85;100.00
54512;BME280;40419;47.438;19.026;2023-04-25T06:22:40;98756.25;;;9.00;100.00
54512;BME280;40419;47.438;19.026;2023-04-25T06:25:09;98756.19;;;9.07;100.00
54512;BME280;40419;47.438;19.026;2023-04-25T06:27:39;98762.38;;;9.14;100.00
54512;BME280;40419;47.438;19.026;2023-04-25T06:30:05;98761.44;;;9.27;100.00
54512;BME280;40419;47.438;19.026;2023-04-25T06:32:40;98755.16;;;9.33;100.00
54512;BME280;40419;47.438;19.026;2023-04-25T06:35:11;98749.00;;;9.45;100.00
54512;BME280;40419;47.438;19.026;2023-04-25T06:37:40;98759.03;;;9.63;100.00
54512;BME280;40419;47.438;19.026;2023-04-25T06:40:08;98754.19;;;9.46;100.00
54512;BME280;40419;47.438;19.026;2023-04-25T06:42:39;98751.81;;;9.56;100.00
54512;BME280;40419;47.438;19.026;2023-04-25T06:45:25;98761.34;;;9.59;100.00
54512;BME280;40419;47.438;19.026;2023-04-25T06:47:53;98755.28;;;9.64;100.00
54512;BME280;40419;47.438;19.026;2023-04-25T06:50:18;98765.47;;;9.62;100.00
54512;BME280;40419;47.438;19.026;2023-04-25T06:52:52;98765.19;;;9.70;100.00
54512;BME280;40419;47.438;19.026;2023-04-25T06:55:19;98766.41;;;9.74;100.00
54512;BME280;40419;47.438;19.026;2023-04-25T06:58:05;98761.13;;;9.61;100.00
54512;BME280;40419;47.438;19.026;2023-04-25T07:00:49;98770.50;;;9.58;100.00
54512;BME280;40419;47.438;19.026;2023-04-25T07:03:15;98770.72;;;9.56;100.00
54512;BME280;40419;47.438;19.026;2023-04-25T07:05:41;98773.56;;;9.62;100.00
54512;BME280;40419;47.438;19.026;2023-04-25T07:08:07;98773.91;;;9.72;100.00
54512;BME280;40419;47.438;19.026;2023-04-25T07:10:35;98776.69;;;9.84;100.00
54512;BME280;40419;47.438;19.026;2023-04-25T07:13:06;98776.16;;;9.75;100.00
54512;BME280;40419;47.438;19.026;2023-04-25T07:15:34;98774.22;;;9.82;100.00
54512;BME280;40419;47.438;19.026;2023-04-25T07:18:05;98775.06;;;10.01;100.00
54512;BME280;40419;47.438;19.026;2023-04-25T07:20:33;98774.81;;;10.03;100.00
54512;BME280;40419;47.438;19.026;2023-04-25T07:22:59;98777.06;;;10.06;100.00
54512;BME280;40419;47.438;19.026;2023-04-25T07:25:25;98779.75;;;10.24;100.00
54512;BME280;40419;47.438;19.026;2023-04-25T07:27:51;98783.66;;;10.28;100.00
54512;BME280;40419;47.438;19.026;2023-04-25T07:30:22;98779.63;;;10.38;100.00
54512;BME280;40419;47.438;19.026;2023-04-25T07:32:51;98777.06;;;10.43;100.00
54512;BME280;40419;47.438;19.026;2023-04-25T07:35:21;98786.94;;;10.68;100.00
54512;BME280;40419;47.438;19.026;2023-04-25T07:37:49;98786.47;;;10.71;100.00
54512;BME280;40419;47.438;19.026;2023-04-25T07:40:18;98793.50;;;10.90;100.00
54512;BME280;40419;47.438;19.026;2023-04-25T07:42:48;98782.97;;;10.82;100.00
54512;BME280;40419;47.438;19.026;2023-04-25T07:45:20;98791.41;;;11.04;100.00
54512;BME280;40419;47.438;19.026;2023-04-25T07:47:48;98785.38;;;10.90;100.00
54512;BME280;40419;47.438;19.026;2023-04-25T07:50:13;98798.00;;;11.08;100.00
54512;BME280;40419;47.438;19.026;2023-04-25T07:52:41;98795.28;;;10.96;100.00
54512;BME280;40419;47.438;19.026;2023-04-25T07:55:21;98794.47;;;11.20;100.00
54512;BME280;40419;47.438;19.026;2023-04-25T07:57:57;98782.38;;;11.22;100.00
54512;BME280;40419;47.438;19.026;2023-04-25T08:00:24;98779.69;;;11.34;100.00
54512;BME280;40419;47.438;19.026;2023-04-25T08:03:02;98777.56;;;11.48;100.00
54512;BME280;40419;47.438;19.026;2023-04-25T08:05:32;98778.97;;;11.39;100.00
54512;BME280;40419;47.438;19.026;2023-04-25T08:08:03;98786.88;;;11.52;100.00
54512;BME280;40419;47.438;19.026;2023-04-25T08:10:34;98780.38;;;11.88;100.00
54512;BME280;40419;47.438;19.026;2023-04-25T08:13:04;98796.53;;;11.95;100.00
54512;BME280;40419;47.438;19.026;2023-04-25T08:15:30;98795.47;;;11.84;100.00
54512;BME280;40419;47.438;19.026;2023-04-25T08:17:58;98799.72;;;11.68;100.00
54512;BME280;40419;47.438;19.026;2023-04-25T08:20:27;98794.16;;;11.87;100.00
54512;BME280;40419;47.438;19.026;2023-04-25T08:22:58;98797.13;;;11.85;100.00
54512;BME280;40419;47.438;19.026;2023-04-25T08:25:44;98791.69;;;11.62;100.00
54512;BME280;40419;47.438;19.026;2023-04-25T08:28:17;98796.88;;;11.51;100.00
54512;BME280;40419;47.438;19.026;2023-04-25T08:30:48;98799.13;;;11.78;100.00
54512;BME280;40419;47.438;19.026;2023-04-25T08:33:15;98798.31;;;11.78;100.00
54512;BME280;40419;47.438;19.026;2023-04-25T08:35:59;98799.72;;;12.04;100.00
54512;BME280;40419;47.438;19.026;2023-04-25T08:38:28;98808.81;;;11.98;100.00
54512;BME280;40419;47.438;19.026;2023-04-25T08:40:57;98803.94;;;12.12;100.00
54512;BME280;40419;47.438;19.026;2023-04-25T08:43:27;98811.81;;;12.25;98.33
54512;BME280;40419;47.438;19.026;2023-04-25T08:46:00;98815.56;;;12.36;99.88
54512;BME280;40419;47.438;19.026;2023-04-25T08:48:50;98812.34;;;12.51;94.48
54512;BME280;40419;47.438;19.026;2023-04-25T08:51:26;98827.16;;;12.19;98.96
54512;BME280;40419;47.438;19.026;2023-04-25T08:53:56;98809.91;;;12.37;99.66
54512;BME280;40419;47.438;19.026;2023-04-25T08:56:22;98827.34;;;12.53;98.38
54512;BME280;40419;47.438;19.026;2023-04-25T08:58:49;98827.47;;;12.47;98.33
54512;BME280;40419;47.438;19.026;2023-04-25T09:01:23;98815.41;;;12.02;100.00
54512;BME280;40419;47.438;19.026;2023-04-25T09:03:52;98831.44;;;12.15;100.00
54512;BME280;40419;47.438;19.026;2023-04-25T09:06:25;98821.47;;;12.45;99.88
54512;BME280;40419;47.438;19.026;2023-04-25T09:08:52;98823.72;;;12.36;99.86
54512;BME280;40419;47.438;19.026;2023-04-25T09:11:20;98823.75;;;12.12;100.00
54512;BME280;40419;47.438;19.026;2023-04-25T09:13:48;98834.25;;;12.20;98.92
54512;BME280;40419;47.438;19.026;2023-04-25T09:16:26;98823.97;;;12.34;100.00
54512;BME280;40419;47.438;19.026;2023-04-25T09:21:54;98822.25;;;12.86;100.00
54512;BME280;40419;47.438;19.026;2023-04-25T09:24:43;98826.69;;;12.92;97.50
54512;BME280;40419;47.438;19.026;2023-04-25T09:27:18;98828.13;;;12.94;95.55
54512;BME280;40419;47.438;19.026;2023-04-25T09:29:44;98822.13;;;12.92;95.58
54512;BME280;40419;47.438;19.026;2023-04-25T09:32:20;98821.31;;;13.09;93.06
54512;BME280;40419;47.438;19.026;2023-04-25T09:34:57;98821.56;;;13.07;94.67
54512;BME280;40419;47.438;19.026;2023-04-25T09:37:29;98822.72;;;13.11;93.73
54512;BME280;40419;47.438;19.026;2023-04-25T09:40:20;98827.94;;;13.01;92.65
54512;BME280;40419;47.438;19.026;2023-04-25T09:42:59;98820.00;;;13.11;92.17
54512;BME280;40419;47.438;19.026;2023-04-25T09:45:29;98823.34;;;13.47;90.64
54512;BME280;40419;47.438;19.026;2023-04-25T09:48:03;98813.63;;;13.35;91.08
54512;BME280;40419;47.438;19.026;2023-04-25T09:50:32;98821.38;;;13.43;88.24
54512;BME280;40419;47.438;19.026;2023-04-25T09:53:09;98815.78;;;13.04;92.79
54512;BME280;40419;47.438;19.026;2023-04-25T09:56:08;98821.06;;;13.10;92.27
54512;BME280;40419;47.438;19.026;2023-04-25T09:58:36;98812.94;;;13.10;89.38
54512;BME280;40419;47.438;19.026;2023-04-25T10:01:10;98824.59;;;12.94;92.58
54512;BME280;40419;47.438;19.026;2023-04-25T10:03:50;98821.09;;;13.27;87.72
54512;BME280;40419;47.438;19.026;2023-04-25T10:06:37;98832.22;;;13.26;86.56
54512;BME280;40419;47.438;19.026;2023-04-25T10:09:04;98819.31;;;13.04;88.17
54512;BME280;40419;47.438;19.026;2023-04-25T10:11:33;98824.94;;;13.15;85.07
54512;BME280;40419;47.438;19.026;2023-04-25T10:13:59;98825.72;;;12.98;85.23
54512;BME280;40419;47.438;19.026;2023-04-25T10:16:25;98820.81;;;12.54;87.36
54512;BME280;40419;47.438;19.026;2023-04-25T10:18:54;98831.16;;;12.69;88.24
54512;BME280;40419;47.438;19.026;2023-04-25T10:21:21;98816.63;;;12.75;88.33
54512;BME280;40419;47.438;19.026;2023-04-25T10:23:50;98823.09;;;12.86;91.42
54512;BME280;40419;47.438;19.026;2023-04-25T10:26:18;98817.25;;;12.94;87.13
54512;BME280;40419;47.438;19.026;2023-04-25T10:28:59;98816.13;;;13.07;89.22
54512;BME280;40419;47.438;19.026;2023-04-25T10:31:27;98814.81;;;12.81;83.91
54512;BME280;40419;47.438;19.026;2023-04-25T10:33:56;98824.19;;;13.02;84.99
54512;BME280;40419;47.438;19.026;2023-04-25T10:36:23;98815.41;;;13.29;80.48
54512;BME280;40419;47.438;19.026;2023-04-25T10:38:52;98815.50;;;13.51;83.93
54512;BME280;40419;47.438;19.026;2023-04-25T10:41:20;98807.44;;;13.73;80.38
54512;BME280;40419;47.438;19.026;2023-04-25T10:43:49;98805.59;;;13.79;79.47
54512;BME280;40419;47.438;19.026;2023-04-25T10:46:26;98817.66;;;13.83;76.64
54512;BME280;40419;47.438;19.026;2023-04-25T10:51:25;98815.16;;;13.64;78.19
54512;BME280;40419;47.438;19.026;2023-04-25T10:56:25;98818.91;;;13.75;79.04
54512;BME280;40419;47.438;19.026;2023-04-25T10:59:04;98839.09;;;13.45;76.07
54512;BME280;40419;47.438;19.026;2023-04-25T11:01:47;98836.44;;;13.51;76.59
54512;BME280;40419;47.438;19.026;2023-04-25T11:07:26;98823.50;;;13.75;76.00
54512;BME280;40419;47.438;19.026;2023-04-25T11:09:54;98829.00;;;13.97;73.18
54512;BME280;40419;47.438;19.026;2023-04-25T11:12:27;98818.88;;;13.92;74.56
54512;BME280;40419;47.438;19.026;2023-04-25T11:15:01;98815.50;;;13.85;74.38
54512;BME280;40419;47.438;19.026;2023-04-25T11:17:27;98813.59;;;13.86;72.97
54512;BME280;40419;47.438;19.026;2023-04-25T11:19:53;98829.91;;;13.86;76.14
54512;BME280;40419;47.438;19.026;2023-04-25T11:22:22;98829.13;;;13.68;72.47
54512;BME280;40419;47.438;19.026;2023-04-25T11:24:48;98834.53;;;13.51;72.74
54512;BME280;40419;47.438;19.026;2023-04-25T11:27:14;98830.34;;;14.16;74.33
54512;BME280;40419;47.438;19.026;2023-04-25T11:29:42;98829.31;;;14.00;71.84
54512;BME280;40419;47.438;19.026;2023-04-25T11:32:09;98829.91;;;14.03;71.61
54512;BME280;40419;47.438;19.026;2023-04-25T11:34:37;98830.25;;;13.72;71.60
54512;BME280;40419;47.438;19.026;2023-04-25T11:37:03;98836.81;;;13.25;73.33
54512;BME280;40419;47.438;19.026;2023-04-25T11:39:31;98840.56;;;13.36;73.62
54512;BME280;40419;47.438;19.026;2023-04-25T11:41:59;98835.31;;;13.18;71.68
54512;BME280;40419;47.438;19.026;2023-04-25T11:44:29;98852.09;;;13.43;72.87
54512;BME280;40419;47.438;19.026;2023-04-25T11:46:57;98847.06;;;13.35;73.62
54512;BME280;40419;47.438;19.026;2023-04-25T11:49:32;98842.13;;;13.66;70.42
54512;BME280;40419;47.438;19.026;2023-04-25T11:52:06;98857.69;;;13.71;71.86
54512;BME280;40419;47.438;19.026;2023-04-25T11:54:31;98842.44;;;13.87;68.68
54512;BME280;40419;47.438;19.026;2023-04-25T11:57:02;98852.41;;;13.81;67.97
54512;BME280;40419;47.438;19.026;2023-04-25T11:59:30;98858.44;;;14.00;67.79
54512;BME280;40419;47.438;19.026;2023-04-25T12:01:58;98862.69;;;14.13;64.09
54512;BME280;40419;47.438;19.026;2023-04-25T12:04:30;98860.41;;;14.05;67.88
54512;BME280;40419;47.438;19.026;2023-04-25T12:06:58;98858.22;;;14.24;64.91
54512;BME280;40419;47.438;19.026;2023-04-25T12:09:32;98860.41;;;14.66;67.02
54512;BME280;40419;47.438;19.026;2023-04-25T12:12:01;98853.97;;;14.72;59.99
54512;BME280;40419;47.438;19.026;2023-04-25T12:14:35;98858.06;;;14.75;58.03
54512;BME280;40419;47.438;19.026;2023-04-25T12:17:02;98862.81;;;14.84;59.13
54512;BME280;40419;47.438;19.026;2023-04-25T12:19:38;98851.84;;;14.57;59.79
54512;BME280;40419;47.438;19.026;2023-04-25T12:22:22;98855.63;;;15.00;60.84
54512;BME280;40419;47.438;19.026;2023-04-25T12:24:48;98848.03;;;15.02;59.02
54512;BME280;40419;47.438;19.026;2023-04-25T12:27:15;98850.50;;;15.04;58.12
54512;BME280;40419;47.438;19.026;2023-04-25T12:29:53;98838.16;;;15.23;56.83
54512;BME280;40419;47.438;19.026;2023-04-25T12:32:24;98835.16;;;15.25;56.96
54512;BME280;40419;47.438;19.026;2023-04-25T12:34:52;98841.63;;;15.46;55.94
54512;BME280;40419;47.438;19.026;2023-04-25T12:37:21;98845.19;;;14.70;56.84
54512;BME280;40419;47.438;19.026;2023-04-25T12:39:52;98842.72;;;14.46;57.05
54512;BME280;40419;47.438;19.026;2023-04-25T12:42:17;98833.28;;;14.54;55.69
54512;BME280;40419;47.438;19.026;2023-04-25T12:44:43;98843.00;;;14.45;51.53
54512;BME280;40419;47.438;19.026;2023-04-25T12:47:11;98834.44;;;14.36;51.40
54512;BME280;40419;47.438;19.026;2023-04-25T12:49:36;98822.00;;;14.45;53.64
54512;BME280;40419;47.438;19.026;2023-04-25T12:52:04;98838.47;;;14.56;53.27
54512;BME280;40419;47.438;19.026;2023-04-25T12:54:32;98817.59;;;14.61;52.45
54512;BME280;40419;47.438;19.026;2023-04-25T12:56:58;98825.44;;;14.80;53.35
54512;BME280;40419;47.438;19.026;2023-04-25T12:59:30;98819.38;;;15.00;52.81
54512;BME280;40419;47.438;19.026;2023-04-25T13:01:58;98843.38;;;15.03;52.89
54512;BME280;40419;47.438;19.026;2023-04-25T13:04:29;98822.13;;;15.05;50.19
54512;BME280;40419;47.438;19.026;2023-04-25T13:06:55;98820.69;;;14.97;52.96
54512;BME280;40419;47.438;19.026;2023-04-25T13:09:20;98828.09;;;15.02;52.54
54512;BME280;40419;47.438;19.026;2023-04-25T13:11:49;98818.84;;;15.03;53.95
54512;BME280;40419;47.438;19.026;2023-04-25T13:14:16;98815.41;;;14.85;52.50
54512;BME280;40419;47.438;19.026;2023-04-25T13:16:42;98827.94;;;14.86;52.46
54512;BME280;40419;47.438;19.026;2023-04-25T13:19:07;98814.94;;;14.66;50.11